createdAt,value
2019-02-05T00:01:26.416Z,55.80
2019-02-05T00:04:30.238Z,55.90
2019-02-05T00:07:34.039Z,56.00
2019-02-05T00:10:38.076Z,56.20
2019-02-05T00:13:42.187Z,56.40
2019-02-05T00:16:45.409Z,56.60
2019-02-05T00:19:48.627Z,56.80
2019-02-05T00:22:53.024Z,56.90
2019-02-05T00:26:05.996Z,57.10
2019-02-05T00:29:00.049Z,57.20
2019-02-05T00:32:04.147Z,57.40
2019-02-05T00:35:08.381Z,57.50
2019-02-05T00:38:12.200Z,57.50
2019-02-05T00:41:15.925Z,57.60
2019-02-05T00:44:15.198Z,57.70
2019-02-05T00:47:18.664Z,57.70
2019-02-05T00:50:22.971Z,57.70
2019-02-05T00:53:26.570Z,57.70
2019-02-05T00:56:29.601Z,57.80
2019-02-05T00:59:34.224Z,57.80
2019-02-05T01:02:37.900Z,57.90
2019-02-05T01:05:44.744Z,58.00
2019-02-05T01:08:45.199Z,57.90
2019-02-05T01:11:49.558Z,58.00
2019-02-05T01:14:52.451Z,58.10
2019-02-05T01:17:57.005Z,58.10
2019-02-05T01:21:00.485Z,58.40
2019-02-05T01:24:03.578Z,58.40
2019-02-05T01:27:07.585Z,58.70
2019-02-05T01:30:07.521Z,58.80
2019-02-05T01:33:07.252Z,58.90
2019-02-05T01:36:10.593Z,58.90
2019-02-05T01:39:13.919Z,58.80
2019-02-05T01:42:14.438Z,58.70
2019-02-05T01:45:19.196Z,58.60
2019-02-05T01:48:22.379Z,58.30
2019-02-05T02:01:42.854Z,57.50
2019-02-05T02:24:07.524Z,56.60
2019-02-05T03:25:29.250Z,55.30
2019-02-05T03:28:32.994Z,55.50
2019-02-05T03:31:34.683Z,55.80
2019-02-05T03:34:40.052Z,56.10
2019-02-05T03:37:41.826Z,56.40
2019-02-05T05:15:26.243Z,48.90
2019-02-05T05:18:22.980Z,48.70
2019-02-05T05:21:30.846Z,48.10
2019-02-05T05:24:28.426Z,47.10
2019-02-05T05:27:38.099Z,46.60
2019-02-05T05:32:56.430Z,46.20
2019-02-05T05:34:35.025Z,45.50
2019-02-05T05:37:31.585Z,45.00
2019-02-05T05:40:28.573Z,44.30
2019-02-05T05:43:24.122Z,44.10
2019-02-05T05:46:25.798Z,44.20
2019-02-05T05:49:44.887Z,44.40
2019-02-05T05:52:45.500Z,44.30
2019-02-05T05:55:47.245Z,44.30
2019-02-05T05:58:56.777Z,43.70
2019-02-05T06:01:54.922Z,43.20
2019-02-05T06:04:48.692Z,42.90
2019-02-05T06:07:46.105Z,42.50
2019-02-05T06:11:03.757Z,42.20
2019-02-05T06:14:04.879Z,42.30
2019-02-05T06:17:03.079Z,42.20
2019-02-05T06:19:59.776Z,41.80
2019-02-05T06:22:56.200Z,41.90
2019-02-05T06:26:01.916Z,41.50
2019-02-05T06:28:59.490Z,41.70
2019-02-05T06:31:59.362Z,41.70
2019-02-05T06:34:58.437Z,41.50
2019-02-05T06:37:53.908Z,41.40
2019-02-05T06:40:49.207Z,41.40
2019-02-05T06:43:44.276Z,41.40
2019-02-05T06:46:39.633Z,41.70
2019-02-05T06:49:35.324Z,41.00
2019-02-05T06:52:31.843Z,40.80
2019-02-05T06:55:30.717Z,40.20
2019-02-05T06:58:26.221Z,40.00
2019-02-05T07:01:30.677Z,39.90
2019-02-05T07:04:25.867Z,39.80
2019-02-05T07:07:25.093Z,39.90
2019-02-05T07:10:22.751Z,39.70
2019-02-05T07:13:19.237Z,39.40
2019-02-05T07:16:15.903Z,39.00
2019-02-05T07:19:15.033Z,38.90
2019-02-05T07:22:12.677Z,38.50
2019-02-05T07:25:11.348Z,37.70
2019-02-05T07:28:13.872Z,37.60
2019-02-05T07:31:19.556Z,37.30
2019-02-05T07:34:16.520Z,37.30
2019-02-05T07:37:15.771Z,37.10
2019-02-05T07:40:14.780Z,36.80
2019-02-05T07:43:12.626Z,36.50
2019-02-05T07:46:09.694Z,36.20
2019-02-05T07:49:20.668Z,36.00
2019-02-05T07:52:15.957Z,35.80
2019-02-05T07:55:14.680Z,36.10
2019-02-05T07:58:11.114Z,36.10
2019-02-05T08:01:06.879Z,36.10
2019-02-05T08:04:02.692Z,36.00
2019-02-05T08:06:58.931Z,36.10
2019-02-05T08:09:53.857Z,36.60
2019-02-05T08:16:36.499Z,36.60
2019-02-05T08:19:31.795Z,36.30
2019-02-05T08:22:28.655Z,35.80
2019-02-05T08:25:23.994Z,35.40
2019-02-05T08:28:19.156Z,35.50
2019-02-05T08:31:15.051Z,35.40
2019-02-05T08:34:10.187Z,35.20
2019-02-05T08:37:05.213Z,35.30
2019-02-05T08:40:00.718Z,35.00
2019-02-05T08:42:56.303Z,35.40
2019-02-05T08:45:56.797Z,35.00
2019-02-05T08:48:51.615Z,34.30
2019-02-05T08:51:48.606Z,34.10
2019-02-05T08:54:45.611Z,34.30
2019-02-05T08:57:41.713Z,34.10
2019-02-05T09:00:40.963Z,33.80
2019-02-05T09:03:51.329Z,33.70
2019-02-05T09:10:00.575Z,34.00
2019-02-05T09:13:03.245Z,34.00
2019-02-05T09:16:09.164Z,33.50
2019-02-05T09:22:17.432Z,33.60
2019-02-05T09:25:15.248Z,33.60
2019-02-05T09:28:11.889Z,33.70
2019-02-05T09:31:08.057Z,33.40
2019-02-05T09:34:08.209Z,32.70
2019-02-05T09:37:03.187Z,32.80
2019-02-05T09:40:02.359Z,32.70
2019-02-05T09:42:58.124Z,32.70
2019-02-05T09:45:56.022Z,32.60
2019-02-05T09:48:54.176Z,31.80
2019-02-05T09:53:13.309Z,31.50
2019-02-05T09:55:07.982Z,31.20
2019-02-05T09:58:34.818Z,31.00
2019-02-05T10:01:44.071Z,30.60
2019-02-05T10:05:27.077Z,30.40
2019-02-05T10:09:51.559Z,30.00
2019-02-05T10:16:43.841Z,29.40
2019-02-05T11:00:48.527Z,31.30
2019-02-05T11:04:03.570Z,31.40
2019-02-05T11:06:58.710Z,31.30
2019-02-05T11:10:03.121Z,31.40
2019-02-05T11:12:58.154Z,31.40
2019-02-05T11:15:53.987Z,31.40
2019-02-05T11:19:07.214Z,31.80
2019-02-05T11:29:22.663Z,31.80
2019-02-05T11:32:29.730Z,31.80
2019-02-05T11:35:34.337Z,31.80
2019-02-05T11:38:30.671Z,32.00
2019-02-05T11:41:34.569Z,32.20
2019-02-05T11:44:31.438Z,32.40
2019-02-05T11:47:29.236Z,32.70
2019-02-05T11:50:25.050Z,32.90
2019-02-05T11:56:49.660Z,33.40
2019-02-05T11:59:48.312Z,33.60
2019-02-05T12:02:49.266Z,33.80
2019-02-05T12:05:48.636Z,34.00
2019-02-05T12:08:45.910Z,34.40
2019-02-05T12:11:45.707Z,34.80
2019-02-05T12:14:45.915Z,34.90
2019-02-05T12:18:05.612Z,34.90
2019-02-05T12:20:59.642Z,35.00
2019-02-05T12:24:12.364Z,35.10
2019-02-05T12:27:44.788Z,35.40
2019-02-05T12:30:46.393Z,35.70
2019-02-05T12:34:12.607Z,35.60
2019-02-05T12:40:51.841Z,36.00
2019-02-05T12:43:49.199Z,36.40
2019-02-05T12:46:45.213Z,36.80
2019-02-05T12:49:49.459Z,36.90
2019-02-05T12:52:46.120Z,37.10
2019-02-05T12:55:43.762Z,37.30
2019-02-05T12:58:40.386Z,37.60
2019-02-05T13:01:40.096Z,37.80
2019-02-05T13:04:38.593Z,37.90
2019-02-05T13:07:34.563Z,38.10
2019-02-05T13:10:32.519Z,38.70
2019-02-05T13:13:28.086Z,38.80
2019-02-05T13:16:23.933Z,39.10
2019-02-05T13:19:19.328Z,39.30
2019-02-05T13:22:20.500Z,39.50
2019-02-05T13:25:29.446Z,39.60
2019-02-05T13:28:33.978Z,39.70
2019-02-05T13:31:29.964Z,40.10
2019-02-05T13:34:25.572Z,40.00
2019-02-05T13:37:20.963Z,40.30
2019-02-05T13:40:18.223Z,40.40
2019-02-05T13:43:14.307Z,40.70
2019-02-05T13:46:10.358Z,41.10
2019-02-05T13:49:05.917Z,41.50
2019-02-05T13:52:01.217Z,41.40
2019-02-05T13:54:56.008Z,41.40
2019-02-05T13:57:51.033Z,41.50
2019-02-05T14:00:54.586Z,41.50
2019-02-05T14:03:49.545Z,41.20
2019-02-05T14:06:44.545Z,41.00
2019-02-05T14:09:39.793Z,40.90
2019-02-05T14:12:34.501Z,41.00
2019-02-05T14:15:31.076Z,41.30
2019-02-05T14:18:26.613Z,41.40
2019-02-05T14:21:21.602Z,41.80
2019-02-05T14:24:16.714Z,42.30
2019-02-05T14:27:11.441Z,42.70
2019-02-05T14:30:06.858Z,42.90
2019-02-05T14:33:02.142Z,43.00
2019-02-05T14:35:57.153Z,43.30
2019-02-05T14:38:51.896Z,43.40
2019-02-05T14:41:46.967Z,43.60
2019-02-05T14:44:41.538Z,43.80
2019-02-05T14:47:36.592Z,43.70
2019-02-05T14:50:33.709Z,43.80
2019-02-05T14:53:28.591Z,43.50
2019-02-05T14:56:23.668Z,43.30
2019-02-05T14:59:19.129Z,43.30
2019-02-05T15:02:14.476Z,43.50
2019-02-05T15:05:10.049Z,43.60
2019-02-05T15:08:05.930Z,44.00
2019-02-05T15:11:02.283Z,44.20
2019-02-05T15:13:57.503Z,44.20
2019-02-05T15:16:53.111Z,44.30
2019-02-05T15:19:48.615Z,44.20
2019-02-05T15:22:43.581Z,44.30
2019-02-05T15:25:39.951Z,44.30
2019-02-05T15:28:35.591Z,44.30
2019-02-05T15:31:30.776Z,44.40
2019-02-05T15:34:28.115Z,44.40
2019-02-05T15:37:23.804Z,44.50
2019-02-05T15:40:19.355Z,44.70
2019-02-05T15:43:14.854Z,45.00
2019-02-05T15:46:12.524Z,45.00
2019-02-05T15:49:08.137Z,45.00
2019-02-05T15:52:03.475Z,45.10
2019-02-05T15:54:59.546Z,45.20
2019-02-05T15:57:55.319Z,45.40
2019-02-05T16:00:50.627Z,45.50
2019-02-05T16:03:46.146Z,45.70
2019-02-05T16:06:41.760Z,45.90
2019-02-05T16:09:37.187Z,46.10
2019-02-05T16:12:32.668Z,46.20
2019-02-05T16:15:27.596Z,46.30
2019-02-05T16:18:22.431Z,46.40
2019-02-05T16:21:17.486Z,46.30
2019-02-05T16:24:13.796Z,46.40
2019-02-05T16:27:09.894Z,46.40
2019-02-05T16:30:05.520Z,46.50
2019-02-05T16:33:01.162Z,46.50
2019-02-05T16:35:56.704Z,46.50
2019-02-05T16:38:51.782Z,46.00
2019-02-05T16:41:47.251Z,46.70
2019-02-05T16:44:43.456Z,46.70
2019-02-05T16:47:39.031Z,46.60
2019-02-05T16:50:36.981Z,46.50
2019-02-05T16:53:32.147Z,46.40
2019-02-05T16:56:28.028Z,46.40
2019-02-05T16:59:24.730Z,46.30
2019-02-05T17:02:28.672Z,46.30
2019-02-05T17:05:17.589Z,46.40
2019-02-05T17:08:13.392Z,46.50
2019-02-05T17:11:09.438Z,46.80
2019-02-05T17:14:05.117Z,47.00
2019-02-05T17:17:03.117Z,47.20
2019-02-05T17:20:01.168Z,47.30
2019-02-05T17:22:57.133Z,47.10
2019-02-05T17:25:53.076Z,46.90
2019-02-05T17:28:48.593Z,46.80
2019-02-05T17:31:45.425Z,46.70
2019-02-05T17:34:44.481Z,46.60
2019-02-05T17:37:40.033Z,46.50
2019-02-05T17:40:35.574Z,46.60
2019-02-05T17:43:30.303Z,46.60
2019-02-05T17:46:25.652Z,46.70
2019-02-05T17:49:20.799Z,46.70
2019-02-05T17:52:16.268Z,46.60
2019-02-05T17:55:12.451Z,46.40
2019-02-05T17:58:07.777Z,46.20
2019-02-05T18:01:10.379Z,46.40
2019-02-05T18:04:05.096Z,46.40
2019-02-05T18:06:59.844Z,46.50
2019-02-05T18:09:54.817Z,46.60
2019-02-05T18:12:50.260Z,46.70
2019-02-05T18:15:47.588Z,46.80
2019-02-05T18:18:42.695Z,47.00
2019-02-05T18:21:38.316Z,47.40
2019-02-05T18:24:38.164Z,47.70
2019-02-05T18:27:33.198Z,48.00
2019-02-05T18:30:32.951Z,49.00
2019-02-05T18:33:27.648Z,48.80
2019-02-05T18:36:22.396Z,49.20
2019-02-05T18:39:17.254Z,49.60
2019-02-05T18:42:11.979Z,49.90
2019-02-05T18:45:07.311Z,50.10
2019-02-05T18:48:02.188Z,50.10
2019-02-05T18:50:59.722Z,50.10
2019-02-05T18:53:57.541Z,50.10
2019-02-05T18:56:52.511Z,50.10
2019-02-05T18:59:47.396Z,50.20
2019-02-05T19:02:42.323Z,50.40
2019-02-05T19:05:37.243Z,50.30
2019-02-05T19:08:32.748Z,50.30
2019-02-05T19:11:27.686Z,50.20
2019-02-05T19:14:23.438Z,50.10
2019-02-05T19:17:18.663Z,50.70
2019-02-05T19:20:13.967Z,50.00
2019-02-05T19:23:10.526Z,50.00
2019-02-05T19:26:10.374Z,49.90
2019-02-05T19:29:05.343Z,49.90
2019-02-05T19:32:00.474Z,49.80
2019-02-05T19:34:55.270Z,49.70
2019-02-05T19:37:50.043Z,49.80
2019-02-05T19:40:45.053Z,49.70
2019-02-05T19:43:39.815Z,49.80
2019-02-05T19:46:46.290Z,49.90
2019-02-05T19:49:44.791Z,50.10
2019-02-05T19:52:40.438Z,50.20
2019-02-05T19:55:35.074Z,50.30
2019-02-05T19:58:29.629Z,50.40
2019-02-05T20:01:25.298Z,50.60
2019-02-05T20:04:20.122Z,50.80
2019-02-05T20:07:15.136Z,51.00
2019-02-05T20:10:11.153Z,51.20
2019-02-05T20:13:05.777Z,51.30
2019-02-05T20:16:01.204Z,51.60
2019-02-05T20:18:56.124Z,51.70
2019-02-05T20:21:51.081Z,51.90
2019-02-05T20:24:45.705Z,52.00
2019-02-05T20:27:40.322Z,52.30
2019-02-05T20:30:35.873Z,52.50
2019-02-05T20:33:30.752Z,52.60
2019-02-05T20:36:25.680Z,52.90
2019-02-05T20:39:22.023Z,53.10
2019-02-05T20:42:16.832Z,53.10
2019-02-05T20:45:13.257Z,53.30
2019-02-05T20:48:08.351Z,53.40
2019-02-05T20:51:03.847Z,53.50
2019-02-05T20:53:58.749Z,53.60
2019-02-05T20:56:53.658Z,53.60
2019-02-05T20:59:48.772Z,53.80
2019-02-05T21:02:43.714Z,53.80
2019-02-05T21:05:38.352Z,53.90
2019-02-05T21:08:33.284Z,53.80
2019-02-05T21:11:28.525Z,53.90
2019-02-05T21:14:23.270Z,53.70
2019-02-05T21:17:17.893Z,53.50
2019-02-05T21:20:14.610Z,53.40
2019-02-05T21:23:09.648Z,53.30
2019-02-05T21:26:04.434Z,53.30
2019-02-05T21:28:59.429Z,53.30
2019-02-05T21:31:54.759Z,53.30
2019-02-05T21:34:49.704Z,53.30
2019-02-05T21:37:44.656Z,53.30
2019-02-05T21:40:39.583Z,53.30
2019-02-05T21:43:34.578Z,53.50
2019-02-05T21:46:29.753Z,53.50
2019-02-05T21:49:24.557Z,53.40
2019-02-05T21:52:19.661Z,53.50
2019-02-05T21:55:15.350Z,53.60
2019-02-05T21:58:12.473Z,53.70
2019-02-05T22:01:05.989Z,53.80
2019-02-05T22:04:00.833Z,54.00
2019-02-05T22:06:55.952Z,54.10
2019-02-05T22:09:50.922Z,54.00
2019-02-05T22:12:45.977Z,54.10
2019-02-05T22:15:40.686Z,54.10
2019-02-05T22:18:35.618Z,54.00
2019-02-05T22:21:30.685Z,54.00
2019-02-05T22:24:25.567Z,54.00
2019-02-05T22:27:20.470Z,53.90
2019-02-05T22:30:21.104Z,53.90
2019-02-05T22:33:15.879Z,54.10
2019-02-05T22:36:11.042Z,53.80
2019-02-05T22:39:07.870Z,53.80
2019-02-05T22:42:02.395Z,54.00
2019-02-05T22:44:57.485Z,54.10
2019-02-05T22:47:52.348Z,54.10
2019-02-05T22:50:47.198Z,54.20
2019-02-05T22:53:42.040Z,54.20
2019-02-05T22:56:36.705Z,54.30
2019-02-05T22:59:31.897Z,54.40
2019-02-05T23:02:27.289Z,54.50
2019-02-05T23:05:56.530Z,54.40
2019-02-05T23:08:51.339Z,54.30
2019-02-05T23:12:18.430Z,54.10
2019-02-05T23:15:18.262Z,53.90
2019-02-05T23:18:13.253Z,53.70
2019-02-05T23:21:08.137Z,53.70
2019-02-05T23:24:03.169Z,53.70
2019-02-05T23:26:57.918Z,53.60
2019-02-05T23:29:52.546Z,53.40
2019-02-05T23:32:47.239Z,53.40
2019-02-05T23:35:42.282Z,53.30
2019-02-05T23:38:37.242Z,53.30
2019-02-05T23:41:32.320Z,53.50
2019-02-05T23:44:27.023Z,53.60
2019-02-05T23:47:22.313Z,53.80
2019-02-05T23:50:18.773Z,53.90
2019-02-05T23:53:13.837Z,54.10
2019-02-05T23:56:08.813Z,54.20
2019-02-05T23:59:03.531Z,54.30
